sensor_id;sensor_type;location;lat;lon;timestamp;P1;durP1;ratioP1;P2;durP2;ratioP2
31724;SDS011;18306;40.960;14.836;2023-05-19T00:00:58;2.95;;;1.80;;
31724;SDS011;18306;40.960;14.836;2023-05-19T00:03:26;3.20;;;1.23;;
31724;SDS011;18306;40.960;14.836;2023-05-19T00:05:53;2.92;;;1.63;;
31724;SDS011;18306;40.960;14.836;2023-05-19T00:08:24;2.50;;;1.60;;
31724;SDS011;18306;40.960;14.836;2023-05-19T00:10:52;2.92;;;1.30;;
31724;SDS011;18306;40.960;14.836;2023-05-19T00:13:20;2.40;;;1.48;;
31724;SDS011;18306;40.960;14.836;2023-05-19T00:15:48;0.77;;;0.75;;
31724;SDS011;18306;40.960;14.836;2023-05-19T00:18:16;1.92;;;1.30;;
31724;SDS011;18306;40.960;14.836;2023-05-19T00:20:43;1.73;;;1.20;;
31724;SDS011;18306;40.960;14.836;2023-05-19T00:23:10;4.50;;;1.45;;
31724;SDS011;18306;40.960;14.836;2023-05-19T00:25:37;3.28;;;1.40;;
31724;SDS011;18306;40.960;14.836;2023-05-19T00:28:04;3.35;;;1.55;;
31724;SDS011;18306;40.960;14.836;2023-05-19T00:30:34;2.13;;;1.25;;
31724;SDS011;18306;40.960;14.836;2023-05-19T00:33:02;3.55;;;1.90;;
31724;SDS011;18306;40.960;14.836;2023-05-19T00:35:29;2.90;;;1.73;;
31724;SDS011;18306;40.960;14.836;2023-05-19T00:37:58;6.38;;;1.52;;
31724;SDS011;18306;40.960;14.836;2023-05-19T00:40:26;1.55;;;1.38;;
31724;SDS011;18306;40.960;14.836;2023-05-19T00:42:56;1.73;;;1.42;;
31724;SDS011;18306;40.960;14.836;2023-05-19T00:45:23;3.47;;;1.80;;
31724;SDS011;18306;40.960;14.836;2023-05-19T00:47:51;2.80;;;1.42;;
31724;SDS011;18306;40.960;14.836;2023-05-19T00:50:21;3.28;;;1.38;;
31724;SDS011;18306;40.960;14.836;2023-05-19T00:52:54;1.67;;;1.50;;
31724;SDS011;18306;40.960;14.836;2023-05-19T00:55:22;8.45;;;1.42;;
31724;SDS011;18306;40.960;14.836;2023-05-19T00:57:54;1.60;;;0.90;;
31724;SDS011;18306;40.960;14.836;2023-05-19T01:00:22;2.00;;;1.00;;
31724;SDS011;18306;40.960;14.836;2023-05-19T01:02:49;2.15;;;1.08;;
31724;SDS011;18306;40.960;14.836;2023-05-19T01:05:17;3.72;;;1.55;;
31724;SDS011;18306;40.960;14.836;2023-05-19T01:07:44;2.20;;;0.95;;
31724;SDS011;18306;40.960;14.836;2023-05-19T01:10:19;1.20;;;0.80;;
31724;SDS011;18306;40.960;14.836;2023-05-19T01:12:46;2.65;;;0.70;;
31724;SDS011;18306;40.960;14.836;2023-05-19T01:15:14;1.65;;;1.13;;
31724;SDS011;18306;40.960;14.836;2023-05-19T01:17:51;3.53;;;1.10;;
31724;SDS011;18306;40.960;14.836;2023-05-19T01:20:34;4.43;;;1.15;;
31724;SDS011;18306;40.960;14.836;2023-05-19T01:23:27;1.45;;;0.90;;
31724;SDS011;18306;40.960;14.836;2023-05-19T01:26:08;0.60;;;0.60;;
31724;SDS011;18306;40.960;14.836;2023-05-19T01:28:52;3.47;;;0.98;;
31724;SDS011;18306;40.960;14.836;2023-05-19T01:31:22;2.60;;;1.38;;
31724;SDS011;18306;40.960;14.836;2023-05-19T01:33:52;2.15;;;1.35;;
31724;SDS011;18306;40.960;14.836;2023-05-19T01:36:21;9.48;;;1.30;;
31724;SDS011;18306;40.960;14.836;2023-05-19T01:38:50;1.67;;;1.20;;
31724;SDS011;18306;40.960;14.836;2023-05-19T01:41:19;2.03;;;1.33;;
31724;SDS011;18306;40.960;14.836;2023-05-19T01:43:48;2.42;;;1.30;;
31724;SDS011;18306;40.960;14.836;2023-05-19T01:46:16;2.67;;;1.60;;
31724;SDS011;18306;40.960;14.836;2023-05-19T01:48:47;4.82;;;1.55;;
31724;SDS011;18306;40.960;14.836;2023-05-19T01:51:14;2.17;;;1.13;;
31724;SDS011;18306;40.960;14.836;2023-05-19T01:53:42;4.55;;;1.40;;
31724;SDS011;18306;40.960;14.836;2023-05-19T01:56:09;4.18;;;1.67;;
31724;SDS011;18306;40.960;14.836;2023-05-19T02:01:29;2.80;;;1.50;;
31724;SDS011;18306;40.960;14.836;2023-05-19T02:04:24;2.17;;;1.38;;
31724;SDS011;18306;40.960;14.836;2023-05-19T02:07:02;1.15;;;0.80;;
31724;SDS011;18306;40.960;14.836;2023-05-19T02:10:10;2.35;;;1.45;;
31724;SDS011;18306;40.960;14.836;2023-05-19T02:12:44;1.90;;;1.48;;
31724;SDS011;18306;40.960;14.836;2023-05-19T02:15:13;1.73;;;1.00;;
31724;SDS011;18306;40.960;14.836;2023-05-19T02:17:52;1.15;;;0.70;;
31724;SDS011;18306;40.960;14.836;2023-05-19T02:20:23;1.77;;;1.00;;
31724;SDS011;18306;40.960;14.836;2023-05-19T02:22:50;0.80;;;0.80;;
31724;SDS011;18306;40.960;14.836;2023-05-19T02:25:17;1.67;;;0.88;;
31724;SDS011;18306;40.960;14.836;2023-05-19T02:27:44;1.65;;;1.40;;
31724;SDS011;18306;40.960;14.836;2023-05-19T02:30:14;3.22;;;1.25;;
31724;SDS011;18306;40.960;14.836;2023-05-19T02:32:41;6.97;;;1.58;;
31724;SDS011;18306;40.960;14.836;2023-05-19T02:35:12;1.45;;;1.05;;
31724;SDS011;18306;40.960;14.836;2023-05-19T02:37:40;2.53;;;1.40;;
31724;SDS011;18306;40.960;14.836;2023-05-19T02:40:08;2.50;;;1.10;;
31724;SDS011;18306;40.960;14.836;2023-05-19T02:42:36;2.85;;;1.20;;
31724;SDS011;18306;40.960;14.836;2023-05-19T02:45:03;1.77;;;1.10;;
31724;SDS011;18306;40.960;14.836;2023-05-19T02:47:31;1.48;;;1.23;;
31724;SDS011;18306;40.960;14.836;2023-05-19T02:49:59;2.88;;;1.25;;
31724;SDS011;18306;40.960;14.836;2023-05-19T02:52:26;5.05;;;1.10;;
31724;SDS011;18306;40.960;14.836;2023-05-19T02:54:54;2.47;;;1.27;;
31724;SDS011;18306;40.960;14.836;2023-05-19T02:57:21;3.00;;;1.02;;
31724;SDS011;18306;40.960;14.836;2023-05-19T02:59:49;1.27;;;0.95;;
31724;SDS011;18306;40.960;14.836;2023-05-19T03:02:16;1.63;;;1.08;;
31724;SDS011;18306;40.960;14.836;2023-05-19T03:04:43;1.60;;;1.20;;
31724;SDS011;18306;40.960;14.836;2023-05-19T03:07:11;2.70;;;1.50;;
31724;SDS011;18306;40.960;14.836;2023-05-19T03:09:41;4.70;;;1.40;;
31724;SDS011;18306;40.960;14.836;2023-05-19T03:12:08;3.30;;;1.33;;
31724;SDS011;18306;40.960;14.836;2023-05-19T03:14:35;3.20;;;1.80;;
31724;SDS011;18306;40.960;14.836;2023-05-19T03:17:04;3.25;;;1.38;;
31724;SDS011;18306;40.960;14.836;2023-05-19T03:19:33;3.17;;;1.50;;
31724;SDS011;18306;40.960;14.836;2023-05-19T03:22:00;3.35;;;1.58;;
31724;SDS011;18306;40.960;14.836;2023-05-19T03:24:30;7.63;;;1.88;;
31724;SDS011;18306;40.960;14.836;2023-05-19T03:26:58;2.28;;;1.23;;
31724;SDS011;18306;40.960;14.836;2023-05-19T03:29:25;2.60;;;1.35;;
31724;SDS011;18306;40.960;14.836;2023-05-19T03:31:53;1.70;;;1.20;;
31724;SDS011;18306;40.960;14.836;2023-05-19T03:34:20;1.58;;;1.30;;
31724;SDS011;18306;40.960;14.836;2023-05-19T03:36:47;2.40;;;1.38;;
31724;SDS011;18306;40.960;14.836;2023-05-19T03:39:16;2.63;;;1.92;;
31724;SDS011;18306;40.960;14.836;2023-05-19T03:41:44;4.10;;;1.85;;
31724;SDS011;18306;40.960;14.836;2023-05-19T03:44:12;3.47;;;1.77;;
31724;SDS011;18306;40.960;14.836;2023-05-19T03:46:39;2.58;;;1.50;;
31724;SDS011;18306;40.960;14.836;2023-05-19T03:49:24;6.43;;;1.77;;
31724;SDS011;18306;40.960;14.836;2023-05-19T03:52:03;2.08;;;1.48;;
31724;SDS011;18306;40.960;14.836;2023-05-19T03:54:45;2.72;;;1.83;;
31724;SDS011;18306;40.960;14.836;2023-05-19T03:57:13;2.38;;;1.55;;
31724;SDS011;18306;40.960;14.836;2023-05-19T03:59:40;1.63;;;1.27;;
31724;SDS011;18306;40.960;14.836;2023-05-19T04:02:07;2.67;;;1.75;;
31724;SDS011;18306;40.960;14.836;2023-05-19T04:04:34;1.52;;;1.10;;
31724;SDS011;18306;40.960;14.836;2023-05-19T04:07:03;1.90;;;1.50;;
31724;SDS011;18306;40.960;14.836;2023-05-19T04:09:30;4.28;;;1.70;;
31724;SDS011;18306;40.960;14.836;2023-05-19T04:12:00;3.25;;;1.60;;
31724;SDS011;18306;40.960;14.836;2023-05-19T04:14:27;1.80;;;1.42;;
31724;SDS011;18306;40.960;14.836;2023-05-19T04:16:55;5.38;;;1.90;;
31724;SDS011;18306;40.960;14.836;2023-05-19T04:19:22;5.10;;;2.85;;
31724;SDS011;18306;40.960;14.836;2023-05-19T04:21:50;5.72;;;3.95;;
31724;SDS011;18306;40.960;14.836;2023-05-19T04:24:17;1.70;;;1.60;;
31724;SDS011;18306;40.960;14.836;2023-05-19T04:26:46;1.80;;;1.25;;
31724;SDS011;18306;40.960;14.836;2023-05-19T04:29:15;1.48;;;1.38;;
31724;SDS011;18306;40.960;14.836;2023-05-19T04:31:43;3.42;;;2.00;;
31724;SDS011;18306;40.960;14.836;2023-05-19T04:34:14;2.47;;;1.23;;
31724;SDS011;18306;40.960;14.836;2023-05-19T04:36:54;1.25;;;1.15;;
31724;SDS011;18306;40.960;14.836;2023-05-19T04:39:27;2.58;;;1.42;;
31724;SDS011;18306;40.960;14.836;2023-05-19T04:41:59;1.55;;;1.20;;
31724;SDS011;18306;40.960;14.836;2023-05-19T04:44:45;1.40;;;1.10;;
31724;SDS011;18306;40.960;14.836;2023-05-19T04:47:22;2.17;;;1.60;;
31724;SDS011;18306;40.960;14.836;2023-05-19T04:49:53;2.83;;;1.40;;
31724;SDS011;18306;40.960;14.836;2023-05-19T04:52:26;11.93;;;1.80;;
31724;SDS011;18306;40.960;14.836;2023-05-19T04:54:53;1.95;;;1.40;;
31724;SDS011;18306;40.960;14.836;2023-05-19T04:57:20;2.33;;;1.52;;
31724;SDS011;18306;40.960;14.836;2023-05-19T04:59:48;5.38;;;1.85;;
31724;SDS011;18306;40.960;14.836;2023-05-19T05:02:15;3.83;;;2.13;;
31724;SDS011;18306;40.960;14.836;2023-05-19T05:04:42;3.25;;;1.73;;
31724;SDS011;18306;40.960;14.836;2023-05-19T05:07:15;1.63;;;1.25;;
31724;SDS011;18306;40.960;14.836;2023-05-19T05:09:42;1.25;;;1.15;;
31724;SDS011;18306;40.960;14.836;2023-05-19T05:12:09;3.17;;;1.40;;
31724;SDS011;18306;40.960;14.836;2023-05-19T05:14:39;2.28;;;1.95;;
31724;SDS011;18306;40.960;14.836;2023-05-19T05:17:08;1.73;;;1.45;;
31724;SDS011;18306;40.960;14.836;2023-05-19T05:19:38;4.22;;;2.33;;
31724;SDS011;18306;40.960;14.836;2023-05-19T05:22:06;1.55;;;1.20;;
31724;SDS011;18306;40.960;14.836;2023-05-19T05:24:36;2.65;;;1.40;;
31724;SDS011;18306;40.960;14.836;2023-05-19T05:27:03;1.60;;;1.23;;
31724;SDS011;18306;40.960;14.836;2023-05-19T05:29:33;2.35;;;1.50;;
31724;SDS011;18306;40.960;14.836;2023-05-19T05:32:03;7.55;;;1.42;;
31724;SDS011;18306;40.960;14.836;2023-05-19T05:34:30;3.17;;;2.00;;
31724;SDS011;18306;40.960;14.836;2023-05-19T05:36:58;4.95;;;2.08;;
31724;SDS011;18306;40.960;14.836;2023-05-19T05:39:25;1.35;;;1.25;;
31724;SDS011;18306;40.960;14.836;2023-05-19T05:41:53;1.23;;;0.80;;
31724;SDS011;18306;40.960;14.836;2023-05-19T05:44:22;2.70;;;1.13;;
31724;SDS011;18306;40.960;14.836;2023-05-19T05:46:50;2.65;;;1.15;;
31724;SDS011;18306;40.960;14.836;2023-05-19T05:49:18;1.20;;;0.80;;
31724;SDS011;18306;40.960;14.836;2023-05-19T05:51:46;1.83;;;1.30;;
31724;SDS011;18306;40.960;14.836;2023-05-19T05:54:15;2.35;;;1.08;;
31724;SDS011;18306;40.960;14.836;2023-05-19T05:56:45;1.98;;;1.00;;
31724;SDS011;18306;40.960;14.836;2023-05-19T05:59:13;0.90;;;0.65;;
31724;SDS011;18306;40.960;14.836;2023-05-19T06:01:43;2.83;;;0.90;;
31724;SDS011;18306;40.960;14.836;2023-05-19T06:04:11;1.65;;;1.02;;
31724;SDS011;18306;40.960;14.836;2023-05-19T06:06:38;2.13;;;1.23;;
31724;SDS011;18306;40.960;14.836;2023-05-19T06:09:05;1.38;;;0.95;;
31724;SDS011;18306;40.960;14.836;2023-05-19T06:11:32;1.83;;;1.17;;
31724;SDS011;18306;40.960;14.836;2023-05-19T06:14:00;1.85;;;1.20;;
31724;SDS011;18306;40.960;14.836;2023-05-19T06:17:03;3.35;;;1.60;;
31724;SDS011;18306;40.960;14.836;2023-05-19T06:19:30;1.58;;;1.27;;
31724;SDS011;18306;40.960;14.836;2023-05-19T06:21:58;7.45;;;1.23;;
31724;SDS011;18306;40.960;14.836;2023-05-19T06:24:25;1.05;;;0.82;;
31724;SDS011;18306;40.960;14.836;2023-05-19T06:26:52;2.33;;;1.25;;
31724;SDS011;18306;40.960;14.836;2023-05-19T06:29:19;5.28;;;1.55;;
31724;SDS011;18306;40.960;14.836;2023-05-19T06:31:47;1.17;;;1.00;;
31724;SDS011;18306;40.960;14.836;2023-05-19T06:34:16;3.70;;;1.60;;
31724;SDS011;18306;40.960;14.836;2023-05-19T06:36:45;2.83;;;1.30;;
31724;SDS011;18306;40.960;14.836;2023-05-19T06:39:14;1.35;;;1.10;;
31724;SDS011;18306;40.960;14.836;2023-05-19T06:41:42;2.67;;;1.20;;
31724;SDS011;18306;40.960;14.836;2023-05-19T06:44:09;2.80;;;1.55;;
31724;SDS011;18306;40.960;14.836;2023-05-19T06:46:36;3.20;;;1.50;;
31724;SDS011;18306;40.960;14.836;2023-05-19T06:49:06;2.75;;;1.30;;
31724;SDS011;18306;40.960;14.836;2023-05-19T06:51:38;1.85;;;1.15;;
31724;SDS011;18306;40.960;14.836;2023-05-19T06:54:06;2.08;;;1.17;;
31724;SDS011;18306;40.960;14.836;2023-05-19T06:56:36;2.20;;;1.00;;
31724;SDS011;18306;40.960;14.836;2023-05-19T06:59:03;3.75;;;1.50;;
31724;SDS011;18306;40.960;14.836;2023-05-19T07:01:35;5.90;;;1.60;;
31724;SDS011;18306;40.960;14.836;2023-05-19T07:04:03;6.13;;;1.75;;
31724;SDS011;18306;40.960;14.836;2023-05-19T07:06:30;2.13;;;1.38;;
31724;SDS011;18306;40.960;14.836;2023-05-19T07:08:57;4.63;;;1.45;;
31724;SDS011;18306;40.960;14.836;2023-05-19T07:11:30;1.17;;;0.90;;
31724;SDS011;18306;40.960;14.836;2023-05-19T07:13:58;3.33;;;1.55;;
31724;SDS011;18306;40.960;14.836;2023-05-19T07:16:29;2.05;;;1.30;;
31724;SDS011;18306;40.960;14.836;2023-05-19T07:18:56;7.07;;;1.10;;
31724;SDS011;18306;40.960;14.836;2023-05-19T07:21:24;1.40;;;1.25;;
31724;SDS011;18306;40.960;14.836;2023-05-19T07:23:51;1.67;;;1.23;;
31724;SDS011;18306;40.960;14.836;2023-05-19T07:26:18;1.38;;;1.27;;
31724;SDS011;18306;40.960;14.836;2023-05-19T07:28:45;1.75;;;1.17;;
31724;SDS011;18306;40.960;14.836;2023-05-19T07:31:13;2.47;;;1.27;;
31724;SDS011;18306;40.960;14.836;2023-05-19T07:33:40;1.70;;;1.20;;
31724;SDS011;18306;40.960;14.836;2023-05-19T07:36:07;1.60;;;0.80;;
31724;SDS011;18306;40.960;14.836;2023-05-19T07:38:34;1.27;;;1.17;;
31724;SDS011;18306;40.960;14.836;2023-05-19T07:41:01;1.58;;;0.88;;
31724;SDS011;18306;40.960;14.836;2023-05-19T07:43:29;0.77;;;0.75;;
31724;SDS011;18306;40.960;14.836;2023-05-19T07:45:56;1.67;;;1.00;;
31724;SDS011;18306;40.960;14.836;2023-05-19T07:48:23;2.33;;;1.13;;
31724;SDS011;18306;40.960;14.836;2023-05-19T07:50:51;3.67;;;1.42;;
31724;SDS011;18306;40.960;14.836;2023-05-19T07:53:18;1.27;;;1.10;;
31724;SDS011;18306;40.960;14.836;2023-05-19T07:55:46;3.03;;;1.40;;
31724;SDS011;18306;40.960;14.836;2023-05-19T07:58:13;0.73;;;0.73;;
31724;SDS011;18306;40.960;14.836;2023-05-19T08:00:41;1.25;;;0.80;;
31724;SDS011;18306;40.960;14.836;2023-05-19T08:03:08;1.27;;;0.85;;
31724;SDS011;18306;40.960;14.836;2023-05-19T08:05:35;1.77;;;1.17;;
31724;SDS011;18306;40.960;14.836;2023-05-19T23:30:19;5.95;;;3.40;;
31724;SDS011;18306;40.960;14.836;2023-05-19T23:32:46;6.75;;;3.70;;
31724;SDS011;18306;40.960;14.836;2023-05-19T23:35:15;7.55;;;3.92;;
31724;SDS011;18306;40.960;14.836;2023-05-19T23:37:42;5.07;;;3.97;;
31724;SDS011;18306;40.960;14.836;2023-05-19T23:40:12;7.07;;;4.20;;
31724;SDS011;18306;40.960;14.836;2023-05-19T23:42:40;7.03;;;4.75;;
31724;SDS011;18306;40.960;14.836;2023-05-19T23:45:10;8.88;;;5.07;;
31724;SDS011;18306;40.960;14.836;2023-05-19T23:47:37;7.18;;;4.50;;
31724;SDS011;18306;40.960;14.836;2023-05-19T23:50:07;6.80;;;4.25;;
31724;SDS011;18306;40.960;14.836;2023-05-19T23:52:38;6.63;;;4.15;;
31724;SDS011;18306;40.960;14.836;2023-05-19T23:55:05;6.80;;;3.40;;
